Time;durP1;ratioP1;P1;durP2;ratioP2;P2;SDS_P1;SDS_P2;PMS_P1;PMS_P2;Temp;Humidity;BMP_temperature;BMP_pressure;BME280_temperature;BME280_humidity;BME280_pressure;Samples;Min_cycle;Max_cycle;Signal;HPM_P1;HPM_P2
2023/02/15 00:01:36;;;;;;;;;14.00;11.50;28.40;29.70;;;;;;110245;1250;50806;-65
2023/02/15 00:04:05;;;;;;;;;13.50;12.00;28.30;29.60;;;;;;110540;1250;49527;-66
2023/02/15 00:06:33;;;;;;;;;11.00;10.00;28.30;29.60;;;;;;110123;1256;44777;-66
2023/02/15 00:09:01;;;;;;;;;12.00;11.00;28.20;29.60;;;;;;110296;1254;54960;-66
2023/02/15 00:11:40;;;;;;;;;14.00;13.00;28.20;29.60;;;;;;110290;1250;53436;-66
2023/02/15 00:14:09;;;;;;;;;12.50;12.00;28.10;29.60;;;;;;110556;1251;50493;-66
2023/02/15 00:16:36;;;;;;;;;14.00;12.00;28.10;29.60;;;;;;110321;1254;48908;-65
2023/02/15 00:19:03;;;;;;;;;10.67;9.67;28.00;29.70;;;;;;110307;1250;45294;-65
2023/02/15 00:21:32;;;;;;;;;13.50;11.00;28.00;29.60;;;;;;110189;1250;54684;-64
2023/02/15 00:24:01;;;;;;;;;11.50;10.50;27.90;29.70;;;;;;110514;1250;53561;-63
2023/02/15 00:26:28;;;;;;;;;14.00;12.00;27.80;29.60;;;;;;110234;1250;50533;-64
2023/02/15 00:28:58;;;;;;;;;10.50;9.50;27.80;29.60;;;;;;110100;1256;49967;-65
2023/02/15 00:31:30;;;;;;;;;12.00;9.00;27.70;29.60;;;;;;110150;1255;45030;-65
2023/02/15 00:34:02;;;;;;;;;13.00;12.00;27.60;29.60;;;;;;110585;1250;54993;-65
2023/02/15 00:36:29;;;;;;;;;10.75;9.75;27.60;29.60;;;;;;110199;1249;53478;-65
2023/02/15 00:38:56;;;;;;;;;13.00;12.00;27.50;29.50;;;;;;110229;1250;50706;-65
2023/02/15 00:41:23;;;;;;;;;14.75;12.25;27.40;29.50;;;;;;110210;1250;49493;-64
2023/02/15 00:43:50;;;;;;;;;13.00;12.00;27.40;29.50;;;;;;110448;1254;44743;-64
2023/02/15 00:46:16;;;;;;;;;11.00;10.00;27.30;29.50;;;;;;110191;1250;54045;-65
2023/02/15 00:48:43;;;;;;;;;11.00;9.00;27.30;29.70;;;;;;110174;1250;54550;-65
2023/02/15 00:51:10;;;;;;;;;13.00;12.00;27.20;29.50;;;;;;110284;1250;49921;-64
2023/02/15 00:53:37;;;;;;;;;12.00;11.00;27.10;29.60;;;;;;110567;1250;49652;-63
2023/02/15 00:56:04;;;;;;;;;11.50;9.50;27.10;29.60;;;;;;110268;1250;45190;-64
2023/02/15 00:58:31;;;;;;;;;13.00;12.00;27.00;29.60;;;;;;110295;1250;55314;-64
2023/02/15 01:01:07;;;;;;;;;13.50;12.50;27.10;29.80;;;;;;110198;1254;54252;-63
2023/02/15 01:03:34;;;;;;;;;12.00;11.00;27.00;29.60;;;;;;110522;1254;51183;-64
2023/02/15 01:06:02;;;;;;;;;11.00;10.00;27.00;29.60;;;;;;110190;1250;49233;-64
2023/02/15 01:08:30;;;;;;;;;11.00;10.00;27.10;29.80;;;;;;110248;1254;44891;-63
2023/02/15 01:11:03;;;;;;;;;12.00;11.00;27.10;29.60;;;;;;110220;1250;54590;-64
2023/02/15 01:13:30;;;;;;;;;13.00;10.00;27.10;29.60;;;;;;110513;1255;53573;-65
2023/02/15 01:15:57;;;;;;;;;12.00;11.00;27.20;29.70;;;;;;110041;1254;49406;-64
2023/02/15 01:18:24;;;;;;;;;11.00;10.00;27.30;29.70;;;;;;110189;1254;48983;-64
2023/02/15 01:20:51;;;;;;;;;11.00;10.00;27.30;29.80;;;;;;110213;1254;45148;-64
2023/02/15 01:23:19;;;;;;;;;13.00;10.00;27.40;29.70;;;;;;110358;1250;55218;-63
2023/02/15 01:25:45;;;;;;;;;13.00;12.00;27.40;29.70;;;;;;110404;1254;54275;-63
2023/02/15 01:28:12;;;;;;;;;13.00;12.00;27.50;29.80;;;;;;110309;1250;49890;-64
2023/02/15 01:30:40;;;;;;;;;14.00;11.50;27.60;29.80;;;;;;110063;1250;50332;-64
2023/02/15 01:33:07;;;;;;;;;12.00;11.00;27.70;29.80;;;;;;110256;1250;44795;-63
2023/02/15 01:35:36;;;;;;;;;12.00;11.00;27.70;29.80;;;;;;110510;1251;56181;-64
2023/02/15 01:38:03;;;;;;;;;14.00;12.00;27.80;29.80;;;;;;110130;1253;53571;-64
2023/02/15 01:40:30;;;;;;;;;12.00;11.00;27.90;29.80;;;;;;110131;1253;49220;-65
2023/02/15 01:42:57;;;;;;;;;14.00;12.00;27.90;29.80;;;;;;110230;1254;49335;-64
2023/02/15 01:45:28;;;;;;;;;13.00;11.00;28.00;29.80;;;;;;110516;1254;45101;-64
2023/02/15 01:47:58;;;;;;;;;12.00;11.00;28.10;29.80;;;;;;110244;1254;54711;-64
2023/02/15 01:50:37;;;;;;;;;14.00;12.00;28.20;29.90;;;;;;110245;1254;54037;-64
2023/02/15 01:53:17;;;;;;;;;14.00;13.00;28.20;29.70;;;;;;110218;1254;49094;-64
2023/02/15 01:55:51;;;;;;;;;13.67;13.00;28.30;29.70;;;;;;110231;1252;50548;-64
2023/02/15 01:58:19;;;;;;;;;12.00;11.00;28.30;29.70;;;;;;110237;1254;44522;-64
2023/02/15 02:00:46;;;;;;;;;13.00;12.00;28.40;29.70;;;;;;110209;1254;54467;-64
2023/02/15 02:03:14;;;;;;;;;16.00;14.00;28.40;29.80;;;;;;110301;1250;54066;-65
2023/02/15 02:05:42;;;;;;;;;12.00;11.00;28.40;29.60;;;;;;110355;1250;49719;-64
2023/02/15 02:08:09;;;;;;;;;13.50;12.00;28.40;29.60;;;;;;110103;1252;48967;-64
2023/02/15 02:10:36;;;;;;;;;14.50;12.00;28.50;29.60;;;;;;110096;1253;44933;-65
2023/02/15 02:13:05;;;;;;;;;11.67;9.33;28.50;29.60;;;;;;110197;1250;55809;-65
2023/02/15 02:15:42;;;;;;;;;14.00;13.00;28.40;29.50;;;;;;110481;1254;54640;-65
2023/02/15 02:18:50;;;;;;;;;15.00;14.00;28.40;29.70;;;;;;110198;1251;50466;-65
2023/02/15 02:21:36;;;;;;;;;13.00;12.00;28.40;29.50;;;;;;109423;1260;50036;-65
2023/02/15 02:24:06;;;;;;;;;13.00;12.00;28.40;29.40;;;;;;109742;1260;45979;-64
2023/02/15 02:26:33;;;;;;;;;12.25;11.50;28.40;29.40;;;;;;109899;1254;54014;-67
2023/02/15 02:29:27;;;;;;;;;11.50;10.00;28.40;29.40;;;;;;110279;1250;54983;-66
2023/02/15 02:32:06;;;;;;;;;13.00;12.00;28.40;29.40;;;;;;110271;1250;49724;-68
2023/02/15 02:34:48;;;;;;;;;12.00;11.00;28.30;29.40;;;;;;110491;1250;50104;-67
2023/02/15 02:37:34;;;;;;;;;12.00;10.50;28.30;29.40;;;;;;110427;1255;45175;-64
2023/02/15 02:40:07;;;;;;;;;14.67;12.33;28.20;29.30;;;;;;110417;1250;54693;-65
2023/02/15 02:42:55;;;;;;;;;12.50;11.50;28.20;29.30;;;;;;110243;1252;54175;-65
2023/02/15 02:45:27;;;;;;;;;14.50;11.50;28.10;29.30;;;;;;110708;1254;50682;-65
2023/02/15 02:48:06;;;;;;;;;13.00;12.00;28.10;29.30;;;;;;110267;1253;49428;-65
2023/02/15 02:50:33;;;;;;;;;14.00;13.00;28.00;29.30;;;;;;110214;1254;44966;-65
2023/02/15 02:53:00;;;;;;;;;11.75;10.25;28.00;29.40;;;;;;110042;1250;54271;-65
2023/02/15 02:55:42;;;;;;;;;12.00;11.00;27.90;29.20;;;;;;110504;1252;53625;-65
2023/02/15 02:58:27;;;;;;;;;;;27.80;29.20;;;;;;110232;1250;50088;-66
2023/02/15 03:01:08;;;;;;;;;13.00;12.00;27.80;29.20;;;;;;110241;1250;49107;-64
2023/02/15 03:03:44;;;;;;;;;16.00;15.00;27.70;29.20;;;;;;110425;1252;45488;-65
2023/02/15 03:06:20;;;;;;;;;13.00;11.00;27.60;29.20;;;;;;110111;1252;54845;-65
2023/02/15 03:08:52;;;;;;;;;13.00;12.00;27.60;29.20;;;;;;110228;1250;53644;-65
2023/02/15 03:11:19;;;;;;;;;12.67;11.67;27.50;29.30;;;;;;110259;1254;49812;-64
2023/02/15 03:13:48;;;;;;;;;12.00;11.00;27.50;29.10;;;;;;110479;1250;50420;-65
2023/02/15 03:16:26;;;;;;;;;12.50;11.50;27.40;29.20;;;;;;110218;1254;44321;-65
2023/02/15 03:19:08;;;;;;;;;14.50;10.50;27.30;29.10;;;;;;110169;1254;53974;-65
2023/02/15 03:21:38;;;;;;;;;12.00;11.00;27.20;29.20;;;;;;110161;1254;53415;-65
2023/02/15 03:24:19;;;;;;;;;17.67;14.00;27.20;29.20;;;;;;110502;1254;49795;-65
2023/02/15 03:26:50;;;;;;;;;14.00;13.00;27.10;29.10;;;;;;110178;1255;49926;-65
2023/02/15 03:29:19;;;;;;;;;14.50;12.25;27.10;29.20;;;;;;110152;1254;45295;-65
2023/02/15 03:31:52;;;;;;;;;14.50;11.50;27.00;29.20;;;;;;110226;1254;54386;-65
2023/02/15 03:34:19;;;;;;;;;14.00;13.00;27.00;29.40;;;;;;110529;1250;54065;-65
2023/02/15 03:36:55;;;;;;;;;12.00;11.00;26.90;29.20;;;;;;110204;1251;49023;-65
2023/02/15 03:39:49;;;;;;;;;12.00;10.00;26.90;29.30;;;;;;110240;1250;50051;-65
2023/02/15 03:42:26;;;;;;;;;12.50;11.00;26.90;29.20;;;;;;110276;1250;45221;-64
2023/02/15 03:45:14;;;;;;;;;15.00;14.00;26.90;29.30;;;;;;110366;1254;54367;-64
2023/02/15 03:47:47;;;;;;;;;13.25;11.00;26.90;29.30;;;;;;110178;1250;53774;-65
2023/02/15 03:53:06;;;;;;;;;15.00;12.67;27.00;29.30;;;;;;110161;1254;49392;-65
2023/02/15 03:55:34;;;;;;;;;12.33;11.33;27.10;29.30;;;;;;110493;1250;44870;-65
2023/02/15 04:04:14;;;;;;;;;12.00;11.00;27.30;29.40;;;;;;110489;1251;50431;-64
2023/02/15 04:06:41;;;;;;;;;14.00;13.00;27.40;29.40;;;;;;110194;1250;49465;-64
2023/02/15 04:11:54;;;;;;;;;13.00;11.00;27.60;29.40;;;;;;110193;1254;54487;-65
2023/02/15 04:17:07;;;;;;;;;13.33;11.00;27.70;29.60;;;;;;110211;1250;49273;-65
2023/02/15 04:25:15;;;;;;;;;12.50;10.50;27.90;29.60;;;;;;110665;1250;55250;-65
2023/02/15 04:27:44;;;;;;;;;15.00;11.50;28.00;29.40;;;;;;110336;1254;54970;-65
2023/02/15 04:30:12;;;;;;;;;13.33;11.67;28.00;29.40;;;;;;110340;1255;49834;-66
2023/02/15 04:32:40;;;;;;;;;16.00;13.00;28.10;29.40;;;;;;110238;1254;49438;-64
2023/02/15 04:35:09;;;;;;;;;15.00;14.00;28.10;29.30;;;;;;110649;1250;45305;-66
2023/02/15 04:37:38;;;;;;;;;14.50;13.00;28.20;29.40;;;;;;110310;1250;56262;-65
2023/02/15 04:40:06;;;;;;;;;12.50;11.00;28.20;29.30;;;;;;110211;1251;53753;-65
2023/02/15 04:42:33;;;;;;;;;13.00;11.00;28.20;29.30;;;;;;110230;1254;49751;-66
2023/02/15 04:45:00;;;;;;;;;11.33;10.33;28.20;29.30;;;;;;110584;1250;49730;-65
2023/02/15 04:47:27;;;;;;;;;13.50;12.25;28.20;29.30;;;;;;110253;1254;45447;-65
2023/02/15 04:49:54;;;;;;;;;14.00;13.00;28.20;29.20;;;;;;110252;1253;55174;-65
2023/02/15 04:52:21;;;;;;;;;13.50;12.50;28.20;29.20;;;;;;110271;1254;54038;-64
2023/02/15 04:54:47;;;;;;;;;13.00;12.25;28.20;29.20;;;;;;110505;1251;49098;-65
2023/02/15 04:57:14;;;;;;;;;15.33;12.67;28.20;29.20;;;;;;110247;1250;49518;-65
2023/02/15 04:59:41;;;;;;;;;12.00;11.00;28.20;29.30;;;;;;110296;1254;45268;-67
2023/02/15 05:02:08;;;;;;;;;12.50;11.50;28.20;29.20;;;;;;110264;1254;55867;-68
2023/02/15 05:04:35;;;;;;;;;14.67;13.67;28.10;29.20;;;;;;110428;1254;54972;-67
2023/02/15 05:07:02;;;;;;;;;11.33;10.33;28.10;29.20;;;;;;110215;1254;50674;-68
2023/02/15 05:09:29;;;;;;;;;14.00;13.00;28.10;29.20;;;;;;110200;1251;49461;-68
2023/02/15 05:11:56;;;;;;;;;12.50;11.50;28.00;29.10;;;;;;110218;1254;45239;-68
2023/02/15 05:14:23;;;;;;;;;13.00;12.00;28.00;29.20;;;;;;110598;1250;55662;-67
2023/02/15 05:16:50;;;;;;;;;17.00;14.00;27.90;29.20;;;;;;110193;1250;54647;-70
2023/02/15 05:19:17;;;;;;;;;13.00;10.00;27.90;29.20;;;;;;110138;1250;49431;-68
2023/02/15 05:21:44;;;;;;;;;12.50;11.50;27.80;29.10;;;;;;110301;1250;49157;-69
2023/02/15 05:29:42;;;;;;;;;13.00;12.00;27.60;29.10;;;;;;110075;1254;53916;-67
2023/02/15 05:32:10;;;;;;;;;15.00;13.50;27.60;29.10;;;;;;110053;1254;49865;-66
2023/02/15 05:34:37;;;;;;;;;16.50;14.00;27.50;29.10;;;;;;109874;1250;50104;-64
2023/02/15 05:37:04;;;;;;;;;14.00;13.00;27.40;29.10;;;;;;110088;1250;45165;-64
2023/02/15 05:39:31;;;;;;;;;14.50;13.50;27.40;29.10;;;;;;110224;1251;54244;-65
2023/02/15 05:41:59;;;;;;;;;12.00;11.00;27.30;29.00;;;;;;110184;1250;54347;-64
2023/02/15 05:44:26;;;;;;;;;14.00;13.00;27.30;29.10;;;;;;110005;1251;50337;-65
2023/02/15 05:46:53;;;;;;;;;17.00;14.00;27.20;29.10;;;;;;110091;1250;49332;-64
2023/02/15 05:49:20;;;;;;;;;13.00;13.00;27.10;29.00;;;;;;110122;1250;45387;-65
2023/02/15 05:51:48;;;;;;;;;13.00;12.00;27.10;29.20;;;;;;110059;1250;55655;-65
2023/02/15 05:54:16;;;;;;;;;13.00;12.00;27.00;29.10;;;;;;109903;1250;54921;-67
2023/02/15 05:56:43;;;;;;;;;15.00;13.00;26.90;29.20;;;;;;110004;1254;49056;-67
2023/02/15 05:59:09;;;;;;;;;15.00;13.00;26.90;28.70;;;;;;110079;1254;49297;-64
2023/02/15 06:01:36;;;;;;;;;14.00;13.00;26.80;29.20;;;;;;110076;1252;45061;-66
2023/02/15 06:04:04;;;;;;;;;21.00;16.50;26.70;29.20;;;;;;109877;1251;54513;-68
2023/02/15 06:06:31;;;;;;;;;18.00;16.00;26.70;29.90;;;;;;110254;1250;54557;-65
2023/02/15 06:08:58;;;;;;;;;23.00;19.00;26.60;30.30;;;;;;110293;1250;49603;-65
2023/02/15 06:11:25;;;;;;;;;21.00;17.00;26.50;31.10;;;;;;110152;1254;49638;-64
2023/02/15 06:13:52;;;;;;;;;25.00;19.00;26.40;31.20;;;;;;109764;1254;44637;-66
2023/02/15 06:16:19;;;;;;;;;25.00;22.50;26.30;31.20;;;;;;110323;1254;54575;-65
2023/02/15 06:18:46;;;;;;;;;33.00;27.50;26.20;31.40;;;;;;110268;1254;53299;-68
2023/02/15 06:21:13;;;;;;;;;35.00;24.00;26.10;32.00;;;;;;110197;1250;49189;-65
2023/02/15 06:23:40;;;;;;;;;36.00;28.00;26.10;32.30;;;;;;110006;1254;49683;-67
2023/02/15 06:26:07;;;;;;;;;37.00;23.50;26.00;32.30;;;;;;110092;1254;44799;-67
2023/02/15 06:28:34;;;;;;;;;29.00;25.00;26.00;32.30;;;;;;110351;1250;54729;-66
2023/02/15 06:31:01;;;;;;;;;25.00;20.00;26.00;32.30;;;;;;110376;1254;54389;-67
2023/02/15 06:33:30;;;;;;;;;28.00;21.00;25.90;32.30;;;;;;109729;1250;724791;-66
2023/02/15 06:35:57;;;;;;;;;36.00;24.00;25.90;32.60;;;;;;110124;1254;49304;-70
2023/02/15 06:38:23;;;;;;;;;31.33;26.67;25.90;32.70;;;;;;110245;1250;45182;-70
2023/02/15 06:40:50;;;;;;;;;33.00;23.00;25.80;32.40;;;;;;110278;1250;54680;-72
2023/02/15 06:43:17;;;;;;;;;26.50;22.75;25.80;32.60;;;;;;110397;1250;54155;-69
2023/02/15 06:45:44;;;;;;;;;27.00;21.00;25.70;32.40;;;;;;110224;1250;49591;-75
2023/02/15 06:48:11;;;;;;;;;32.00;24.00;25.70;32.40;;;;;;110392;1254;49635;-66
2023/02/15 06:50:38;;;;;;;;;24.00;22.00;25.60;32.70;;;;;;110285;1256;44851;-67
2023/02/15 06:53:05;;;;;;;;;34.50;26.50;25.60;32.40;;;;;;110257;1254;55795;-68
2023/02/15 06:55:32;;;;;;;;;28.00;23.00;25.50;32.50;;;;;;110478;1250;54054;-65
2023/02/15 06:57:59;;;;;;;;;25.00;20.67;25.50;32.50;;;;;;110357;1250;49659;-67
2023/02/15 07:00:26;;;;;;;;;32.25;20.50;25.50;32.30;;;;;;110375;1254;49825;-67
2023/02/15 07:02:55;;;;;;;;;35.00;25.00;25.50;32.30;;;;;;110204;1250;44750;-70
2023/02/15 07:05:22;;;;;;;;;30.50;22.00;25.50;32.60;;;;;;110669;1250;53958;-67
2023/02/15 07:07:50;;;;;;;;;32.00;21.00;25.40;32.40;;;;;;110242;1254;54625;-70
2023/02/15 07:10:17;;;;;;;;;27.00;21.00;25.40;32.30;;;;;;110112;1253;49202;-67
2023/02/15 07:12:46;;;;;;;;;27.50;23.00;25.40;32.80;;;;;;110060;1250;51163;-67
2023/02/15 07:15:15;;;;;;;;;34.00;25.00;25.30;32.70;;;;;;110109;1254;45117;-65
2023/02/15 07:17:43;;;;;;;;;28.00;19.33;25.30;32.90;;;;;;110135;1254;54006;-67
2023/02/15 07:20:14;;;;;;;;;44.00;27.00;25.30;33.00;;;;;;110067;1250;54015;-64
2023/02/15 07:22:41;;;;;;;;;24.00;21.50;25.20;33.00;;;;;;110180;1250;49398;-70
2023/02/15 07:25:10;;;;;;;;;33.00;22.00;25.20;32.90;;;;;;110444;1254;49483;-64
2023/02/15 07:27:37;;;;;;;;;30.00;24.00;25.20;33.10;;;;;;110277;1254;45324;-67
2023/02/15 07:30:05;;;;;;;;;24.00;22.00;25.20;33.10;;;;;;110202;1254;55185;-69
2023/02/15 07:32:32;;;;;;;;;23.33;20.67;25.20;33.10;;;;;;110118;1254;54671;-71
2023/02/15 07:35:00;;;;;;;;;30.00;23.00;25.20;33.20;;;;;;110100;1250;49767;-72
2023/02/15 07:37:27;;;;;;;;;24.67;22.00;25.10;33.40;;;;;;110311;1250;48977;-72
2023/02/15 07:39:54;;;;;;;;;27.00;22.00;25.10;33.40;;;;;;110250;1254;45951;-69
2023/02/15 07:42:21;;;;;;;;;24.00;20.50;25.10;33.30;;;;;;110243;1250;54812;-69
2023/02/15 07:44:48;;;;;;;;;25.00;22.00;25.10;33.60;;;;;;110398;1250;54122;-71
2023/02/15 07:47:15;;;;;;;;;26.00;23.00;25.10;33.30;;;;;;110245;1250;49067;-68
2023/02/15 07:49:42;;;;;;;;;31.00;26.00;25.10;33.50;;;;;;110071;1254;50686;-69
2023/02/15 07:52:09;;;;;;;;;24.00;23.00;25.00;33.20;;;;;;110081;1254;44807;-67
2023/02/15 07:54:36;;;;;;;;;25.67;20.00;25.00;33.10;;;;;;110438;1250;54520;-67
2023/02/15 07:57:04;;;;;;;;;22.00;19.00;24.90;33.20;;;;;;110176;1250;53606;-70
2023/02/15 07:59:31;;;;;;;;;26.00;21.00;25.00;33.40;;;;;;110269;1252;49730;-66
2023/02/15 08:01:58;;;;;;;;;26.00;23.00;25.00;33.10;;;;;;110241;1250;49321;-67
2023/02/15 08:04:25;;;;;;;;;24.00;21.50;24.90;33.00;;;;;;110306;1250;45093;-67
2023/02/15 08:06:54;;;;;;;;;24.00;21.00;24.90;32.90;;;;;;110059;1250;54429;-67
2023/02/15 08:09:21;;;;;;;;;25.50;20.00;24.90;32.80;;;;;;110119;1250;53667;-67
2023/02/15 08:11:48;;;;;;;;;28.50;23.00;24.90;32.70;;;;;;110214;1254;50623;-69
2023/02/15 08:14:22;;;;;;;;;26.50;19.50;24.80;32.70;;;;;;110093;1251;50033;-69
2023/02/15 08:16:50;;;;;;;;;30.00;26.00;24.70;33.00;;;;;;110088;1250;44732;-71
2023/02/15 08:19:23;;;;;;;;;23.00;21.00;24.70;33.10;;;;;;110050;1256;55578;-69
2023/02/15 08:21:53;;;;;;;;;25.00;23.00;24.70;33.10;;;;;;110303;1254;53670;-70
2023/02/15 08:24:21;;;;;;;;;21.00;20.00;24.70;33.20;;;;;;110509;1249;50216;-68
2023/02/15 08:26:49;;;;;;;;;23.25;22.00;24.70;33.20;;;;;;110344;1250;50067;-67
2023/02/15 08:29:18;;;;;;;;;24.00;21.50;24.70;33.20;;;;;;110387;1250;44727;-66
2023/02/15 08:31:45;;;;;;;;;23.33;21.33;24.70;33.30;;;;;;110347;1251;54867;-67
2023/02/15 08:34:15;;;;;;;;;23.00;20.00;24.70;33.10;;;;;;110100;1256;55134;-70
2023/02/15 08:36:44;;;;;;;;;24.00;21.50;24.70;33.40;;;;;;110386;1254;49910;-72
2023/02/15 08:39:13;;;;;;;;;26.00;23.00;24.70;33.20;;;;;;110410;1254;49382;-76
2023/02/15 08:41:42;;;;;;;;;22.00;19.00;24.60;33.20;;;;;;110340;1252;44668;-74
2023/02/15 08:44:10;;;;;;;;;24.00;21.50;24.50;33.10;;;;;;110558;1254;55057;-69
2023/02/15 08:46:40;;;;;;;;;22.00;19.00;24.50;33.80;;;;;;110214;1254;54342;-70
2023/02/15 08:49:08;;;;;;;;;26.33;18.67;24.50;33.20;;;;;;110206;1253;49177;-72
2023/02/15 08:51:37;;;;;;;;;25.00;21.00;24.50;33.10;;;;;;110295;1254;49890;-71
2023/02/15 08:54:07;;;;;;;;;27.00;22.00;24.60;33.10;;;;;;110534;1250;45767;-73
2023/02/15 08:56:36;;;;;;;;;24.00;20.00;24.60;33.10;;;;;;110630;1250;54683;-69
2023/02/15 08:59:04;;;;;;;;;28.00;25.50;24.50;33.10;;;;;;110357;1250;54506;-70
2023/02/15 09:01:33;;;;;;;;;19.00;18.00;24.50;33.00;;;;;;110390;1254;49757;-68
2023/02/15 09:04:04;;;;;;;;;22.00;17.00;24.50;33.10;;;;;;110505;1254;49538;-71
2023/02/15 09:06:31;;;;;;;;;20.50;18.50;24.40;33.20;;;;;;110328;1250;45456;-68
2023/02/15 09:08:58;;;;;;;;;28.00;23.00;24.50;33.20;;;;;;110486;1250;54902;-75
2023/02/15 09:11:27;;;;;;;;;19.50;18.00;24.50;33.40;;;;;;110382;1254;53886;-63
2023/02/15 09:13:57;;;;;;;;;22.50;19.50;24.40;33.20;;;;;;110149;1250;50163;-71
2023/02/15 09:16:27;;;;;;;;;20.00;17.50;24.40;33.20;;;;;;110221;1250;48965;-71
2023/02/15 09:18:57;;;;;;;;;21.00;20.00;24.40;33.20;;;;;;110077;1256;45986;-69
2023/02/15 09:21:25;;;;;;;;;24.00;20.50;24.40;33.10;;;;;;110154;1250;55025;-69
2023/02/15 09:23:56;;;;;;;;;22.00;19.00;24.40;33.20;;;;;;110136;1254;53904;-70
2023/02/15 09:26:24;;;;;;;;;23.00;21.33;24.30;33.10;;;;;;110264;1254;49230;-66
2023/02/15 09:28:55;;;;;;;;;23.00;18.50;24.30;33.40;;;;;;110214;1250;49114;-68
2023/02/15 09:31:25;;;;;;;;;21.75;19.50;24.20;33.50;;;;;;110210;1250;45383;-70
2023/02/15 09:33:52;;;;;;;;;22.00;19.00;24.20;33.60;;;;;;110224;1251;55180;-69
2023/02/15 09:36:28;;;;;;;;;20.50;18.00;24.20;34.40;;;;;;110197;1254;54254;-70
2023/02/15 09:38:58;;;;;;;;;25.00;22.00;24.10;33.70;;;;;;110306;1250;49082;-69
2023/02/15 09:42:02;;;;;;;;;20.00;18.00;24.10;33.20;;;;;;110275;1254;50177;-71
2023/02/15 09:44:38;;;;;;;;;25.00;21.00;24.00;32.90;;;;;;110276;1254;45998;-67
2023/02/15 09:47:50;;;;;;;;;27.50;23.00;24.00;32.90;;;;;;110362;1249;54666;-66
2023/02/15 09:50:20;;;;;;;;;25.00;20.50;24.10;33.70;;;;;;109962;1254;55118;-70
2023/02/15 09:52:49;;;;;;;;;22.00;20.33;24.10;33.10;;;;;;110372;1250;49809;-69
2023/02/15 09:55:39;;;;;;;;;28.00;24.00;24.10;33.20;;;;;;110549;1254;49475;-77
2023/02/15 09:58:09;;;;;;;;;29.50;18.00;24.10;33.20;;;;;;110196;1254;44951;-71
2023/02/15 10:00:36;;;;;;;;;24.00;19.00;24.10;33.00;;;;;;110253;1254;55648;-70
2023/02/15 10:03:06;;;;;;;;;21.50;17.50;24.10;33.30;;;;;;110400;1250;54024;-68
2023/02/15 10:05:51;;;;;;;;;20.00;19.00;24.20;33.40;;;;;;110554;1250;49384;-68
2023/02/15 10:08:29;;;;;;;;;27.00;18.50;24.30;33.20;;;;;;110283;1254;50009;-65
2023/02/15 10:11:38;;;;;;;;;23.50;22.50;24.30;33.20;;;;;;110105;1254;45611;-67
2023/02/15 10:14:17;;;;;;;;;28.50;23.00;24.30;33.00;;;;;;110258;1250;54984;-66
2023/02/15 10:16:53;;;;;;;;;32.00;22.00;24.20;32.90;;;;;;110382;1250;53335;-67
2023/02/15 10:19:34;;;;;;;;;24.00;20.33;24.30;33.60;;;;;;110350;1254;49901;-68
2023/02/15 10:22:16;;;;;;;;;20.50;19.50;24.30;33.10;;;;;;110395;1252;50161;-69
2023/02/15 10:25:01;;;;;;;;;25.67;22.67;24.30;33.10;;;;;;110826;1252;44963;-68
2023/02/15 10:27:33;;;;;;;;;20.50;18.00;24.30;33.10;;;;;;110399;1254;55399;-69
2023/02/15 10:30:34;;;;;;;;;23.00;19.50;24.30;33.20;;;;;;110521;1253;53998;-70
2023/02/15 10:33:06;;;;;;;;;25.75;20.75;24.40;33.30;;;;;;110701;1250;48935;-68
2023/02/15 10:36:20;;;;;;;;;20.33;17.67;24.40;33.00;;;;;;110965;1251;48993;-70
2023/02/15 10:38:47;;;;;;;;;20.00;18.00;24.40;32.90;;;;;;110315;1250;46161;-70
2023/02/15 10:41:55;;;;;;;;;19.50;18.00;24.40;32.80;;;;;;110693;1251;55117;-69
2023/02/15 10:45:00;;;;;;;;;24.00;20.00;24.40;32.60;;;;;;110680;1254;54147;-70
2023/02/15 10:47:55;;;;;;;;;19.00;18.00;24.40;32.80;;;;;;110118;1250;49717;-66
2023/02/15 10:50:52;;;;;;;;;22.00;20.00;24.50;33.00;;;;;;110312;1250;49130;-65
2023/02/15 10:53:22;;;;;;;;;23.00;19.00;24.50;32.50;;;;;;110225;1252;45331;-67
2023/02/15 10:55:59;;;;;;;;;20.00;19.00;24.50;33.20;;;;;;110321;1250;55605;-66
2023/02/15 10:58:54;;;;;;;;;21.67;19.33;24.50;33.20;;;;;;110452;1254;54722;-64
2023/02/15 11:01:51;;;;;;;;;20.33;17.67;24.50;33.20;;;;;;110392;1250;50525;-64
2023/02/15 11:04:39;;;;;;;;;21.00;20.00;24.40;33.20;;;;;;110447;1250;48825;-65
2023/02/15 11:07:30;;;;;;;;;18.00;17.50;24.50;33.50;;;;;;109963;1254;44898;-65
2023/02/15 11:10:15;;;;;;;;;20.00;19.00;24.60;32.70;;;;;;110150;1254;54196;-64
2023/02/15 11:12:42;;;;;;;;;;;24.60;32.70;;;;;;110066;1250;54086;-62
2023/02/15 11:15:21;;;;;;;;;21.00;20.00;24.60;32.80;;;;;;110134;1252;49838;-64
2023/02/15 11:17:55;;;;;;;;;26.00;22.00;24.50;33.00;;;;;;110042;1250;48970;-68
2023/02/15 11:20:28;;;;;;;;;20.00;19.00;24.40;33.00;;;;;;110140;1256;45536;-67
2023/02/15 11:22:55;;;;;;;;;24.00;22.00;24.40;33.10;;;;;;109962;1252;54265;-65
2023/02/15 11:25:39;;;;;;;;;19.00;18.00;24.40;33.10;;;;;;110083;1254;53367;-67
2023/02/15 11:28:18;;;;;;;;;20.00;19.00;24.30;33.10;;;;;;110205;1252;49974;-66
2023/02/15 11:30:53;;;;;;;;;23.00;20.00;24.30;33.10;;;;;;109968;1256;50042;-65
2023/02/15 11:33:28;;;;;;;;;24.00;21.00;24.30;33.10;;;;;;110014;1256;44510;-63
2023/02/15 11:36:04;;;;;;;;;22.75;20.50;24.30;33.20;;;;;;110030;1250;55418;-64
2023/02/15 11:38:35;;;;;;;;;22.00;19.00;24.30;33.20;;;;;;110102;1250;54035;-64
2023/02/15 11:41:07;;;;;;;;;20.00;19.00;24.30;33.50;;;;;;109877;1252;50191;-63
2023/02/15 11:43:40;;;;;;;;;23.00;22.00;24.30;33.60;;;;;;110089;1250;49082;-62
2023/02/15 11:46:09;;;;;;;;;24.00;20.00;24.30;33.50;;;;;;110123;1254;45141;-63
2023/02/15 11:48:36;;;;;;;;;24.00;22.00;24.30;33.40;;;;;;110071;1250;55136;-64
2023/02/15 11:51:04;;;;;;;;;21.00;20.00;24.30;33.30;;;;;;109880;1254;53722;-66
2023/02/15 11:53:36;;;;;;;;;24.00;21.00;24.30;33.30;;;;;;110053;1250;50801;-64
2023/02/15 11:56:05;;;;;;;;;20.00;18.67;24.30;33.20;;;;;;110071;1250;49224;-68
2023/02/15 11:58:40;;;;;;;;;21.00;18.00;24.30;33.50;;;;;;110106;1253;44732;-67
2023/02/15 12:01:24;;;;;;;;;19.00;18.00;24.30;33.30;;;;;;110034;1252;54452;-65
2023/02/15 12:03:52;;;;;;;;;21.67;18.33;24.30;33.10;;;;;;110323;1252;54083;-66
2023/02/15 12:06:32;;;;;;;;;22.00;18.00;24.30;33.90;;;;;;110095;1252;48796;-64
2023/02/15 12:09:10;;;;;;;;;20.00;17.00;24.40;33.40;;;;;;110243;1254;49560;-63
2023/02/15 12:11:39;;;;;;;;;21.00;18.00;24.40;33.40;;;;;;110129;1251;45048;-67
2023/02/15 12:14:08;;;;;;;;;20.50;17.00;24.40;33.30;;;;;;110182;1250;54836;-65
2023/02/15 12:16:45;;;;;;;;;18.00;17.00;24.40;33.40;;;;;;110361;1250;55072;-69
2023/02/15 12:19:31;;;;;;;;;25.00;20.00;24.40;33.10;;;;;;110357;1254;50002;-68
2023/02/15 12:22:01;;;;;;;;;29.50;26.00;24.50;33.00;;;;;;110091;1250;49400;-63
2023/02/15 12:24:31;;;;;;;;;29.00;28.00;24.60;30.20;;;;;;110104;1254;44487;-65
2023/02/15 12:27:00;;;;;;;;;34.50;30.00;24.70;29.20;;;;;;110109;1250;54764;-63
2023/02/15 12:29:31;;;;;;;;;37.00;32.00;24.70;28.50;;;;;;110193;1250;53424;-63
2023/02/15 12:31:59;;;;;;;;;28.00;26.00;24.60;27.70;;;;;;109915;1254;50501;-63
2023/02/15 12:34:32;;;;;;;;;30.00;29.00;24.50;27.20;;;;;;109976;1253;50240;-62
2023/02/15 12:37:10;;;;;;;;;33.75;30.50;24.40;27.10;;;;;;110082;1252;45271;-62
2023/02/15 12:39:52;;;;;;;;;34.00;30.33;24.20;26.70;;;;;;110137;1254;55993;-63
2023/02/15 12:42:19;;;;;;;;;37.00;32.00;24.00;27.40;;;;;;110100;1249;53758;-63
2023/02/15 12:45:25;;;;;;;;;43.50;33.00;23.90;27.60;;;;;;110081;1250;49357;-65
2023/02/15 12:48:21;;;;;;;;;46.00;39.00;23.70;27.60;;;;;;109996;1254;49908;-61
2023/02/15 12:50:50;;;;;;;;;49.67;38.00;23.60;29.00;;;;;;109948;1250;45875;-62
2023/02/15 12:53:33;;;;;;;;;42.00;33.67;23.50;28.90;;;;;;110193;1250;56594;-67
2023/02/15 12:56:06;;;;;;;;;42.67;34.67;23.50;29.20;;;;;;110132;1250;53742;-61
2023/02/15 12:58:35;;;;;;;;;45.00;37.00;23.40;28.70;;;;;;110032;1253;49338;-63
2023/02/15 13:01:02;;;;;;;;;39.00;32.00;23.30;28.80;;;;;;110133;1250;50611;-66
2023/02/15 13:03:29;;;;;;;;;50.00;31.00;23.20;28.30;;;;;;110087;1254;45538;-65
2023/02/15 13:05:58;;;;;;;;;46.00;22.00;23.10;28.30;;;;;;109964;1256;55441;-67
2023/02/15 13:08:31;;;;;;;;;52.00;33.00;23.10;29.00;;;;;;110083;1254;53764;-63